createdAt,value
2018-09-14T00:00:33.963Z,91.00
2018-09-14T00:03:02.155Z,91.00
2018-09-14T00:05:30.336Z,91.20
2018-09-14T00:07:58.483Z,91.30
2018-09-14T00:10:26.643Z,91.40
2018-09-14T00:12:54.831Z,91.30
2018-09-14T00:15:23.001Z,91.40
2018-09-14T00:17:51.166Z,91.60
2018-09-14T00:20:19.326Z,91.40
2018-09-14T00:22:47.483Z,91.50
2018-09-14T00:25:15.638Z,91.90
2018-09-14T00:27:43.786Z,91.90
2018-09-14T00:30:11.947Z,91.90
2018-09-14T00:32:40.098Z,91.90
2018-09-14T00:35:08.267Z,91.90
2018-09-14T00:37:36.413Z,91.60
2018-09-14T00:40:04.834Z,91.50
2018-09-14T00:42:33.211Z,91.70
2018-09-14T00:45:01.415Z,91.90
2018-09-14T00:47:29.576Z,92.20
2018-09-14T00:49:57.738Z,92.20
2018-09-14T00:52:25.895Z,92.50
2018-09-14T00:54:54.318Z,92.40
2018-09-14T00:57:22.462Z,92.60
2018-09-14T00:59:50.635Z,93.00
2018-09-14T01:02:19.139Z,93.00
2018-09-14T01:04:47.296Z,92.90
2018-09-14T01:07:15.447Z,93.00
2018-09-14T01:09:43.603Z,93.00
2018-09-14T01:12:11.763Z,92.80
2018-09-14T01:14:39.925Z,93.10
2018-09-14T01:17:08.127Z,93.10
2018-09-14T01:19:36.321Z,93.10
2018-09-14T01:22:04.478Z,93.20
2018-09-14T01:24:32.639Z,93.30
2018-09-14T01:27:00.797Z,93.30
2018-09-14T01:29:28.950Z,93.00
2018-09-14T01:31:57.107Z,93.20
2018-09-14T01:34:25.306Z,92.90
2018-09-14T01:36:53.486Z,93.00
2018-09-14T01:39:21.670Z,93.10
2018-09-14T01:41:49.854Z,93.40
2018-09-14T01:44:18.042Z,93.60
2018-09-14T01:46:46.218Z,93.80
2018-09-14T01:49:14.420Z,93.60
2018-09-14T01:51:42.640Z,93.80
2018-09-14T01:54:10.835Z,93.90
2018-09-14T01:56:39.530Z,94.20
2018-09-14T01:59:07.723Z,93.90
2018-09-14T02:01:35.913Z,94.00
2018-09-14T02:04:04.382Z,93.80
2018-09-14T02:06:32.570Z,93.80
2018-09-14T02:09:01.020Z,94.00
2018-09-14T02:11:29.206Z,94.20
2018-09-14T02:13:57.382Z,94.00
2018-09-14T02:16:25.574Z,94.30
2018-09-14T02:18:53.767Z,93.80
2018-09-14T02:21:21.943Z,94.10
2018-09-14T02:23:50.156Z,93.80
2018-09-14T02:26:18.363Z,93.60
2018-09-14T02:28:46.701Z,93.50
2018-09-14T02:31:14.892Z,93.50
2018-09-14T02:33:43.282Z,93.10
2018-09-14T02:36:11.471Z,92.90
2018-09-14T02:38:39.619Z,93.00
2018-09-14T02:41:07.773Z,93.30
2018-09-14T02:43:36.430Z,93.10
2018-09-14T02:46:04.587Z,93.10
2018-09-14T02:48:33.186Z,93.30
2018-09-14T02:51:01.569Z,93.20
2018-09-14T02:53:29.727Z,93.10
2018-09-14T02:55:57.945Z,93.40
2018-09-14T02:58:26.116Z,93.50
2018-09-14T03:00:54.266Z,93.20
2018-09-14T03:03:22.951Z,93.40
2018-09-14T03:05:51.108Z,93.90
2018-09-14T03:08:19.259Z,94.30
2018-09-14T03:10:47.415Z,94.30
2018-09-14T03:13:15.667Z,94.20
2018-09-14T03:15:43.922Z,94.30
2018-09-14T03:18:12.078Z,94.50
2018-09-14T03:20:40.235Z,94.10
2018-09-14T03:23:08.386Z,94.10
2018-09-14T03:25:36.536Z,94.10
2018-09-14T03:28:04.724Z,94.30
2018-09-14T03:30:32.976Z,94.00
2018-09-14T03:33:01.117Z,94.10
2018-09-14T03:35:29.314Z,94.00
2018-09-14T03:37:57.490Z,94.30
2018-09-14T03:40:25.666Z,94.10
2018-09-14T03:42:53.850Z,94.10
2018-09-14T03:45:22.026Z,94.10
2018-09-14T03:47:50.220Z,94.10
2018-09-14T03:50:18.403Z,94.20
2018-09-14T03:52:46.591Z,94.30
2018-09-14T03:55:14.779Z,94.00
2018-09-14T03:57:42.966Z,94.30
2018-09-14T04:00:11.436Z,94.70
2018-09-14T04:02:39.668Z,94.60
2018-09-14T04:05:07.875Z,94.50
2018-09-14T04:07:36.125Z,94.40
2018-09-14T04:10:04.260Z,94.40
2018-09-14T04:12:32.454Z,94.50
2018-09-14T04:15:00.643Z,94.40
2018-09-14T04:17:28.840Z,94.50
2018-09-14T04:19:57.026Z,94.50
2018-09-14T04:22:25.226Z,94.40
2018-09-14T04:24:53.405Z,94.40
2018-09-14T04:27:21.601Z,94.40
2018-09-14T04:29:50.079Z,94.40
2018-09-14T04:32:18.351Z,94.50
2018-09-14T04:34:46.575Z,94.40
2018-09-14T04:37:14.808Z,94.20
2018-09-14T04:39:42.973Z,94.40
2018-09-14T04:42:11.287Z,94.40
2018-09-14T04:44:39.475Z,94.60
2018-09-14T04:47:07.700Z,94.80
2018-09-14T04:49:35.870Z,94.50
2018-09-14T04:52:04.072Z,94.60
2018-09-14T04:54:32.254Z,94.30
2018-09-14T04:57:00.448Z,94.30
2018-09-14T04:59:28.626Z,94.50
2018-09-14T05:01:56.822Z,94.50
2018-09-14T05:04:25.238Z,94.60
2018-09-14T05:06:53.468Z,94.50
2018-09-14T05:09:21.660Z,94.60
2018-09-14T05:11:49.868Z,94.50
2018-09-14T05:14:18.105Z,94.30
2018-09-14T05:16:46.238Z,94.60
2018-09-14T05:19:14.414Z,94.40
2018-09-14T05:21:42.606Z,94.10
2018-09-14T05:24:10.872Z,94.40
2018-09-14T05:26:39.003Z,94.10
2018-09-14T05:29:07.196Z,93.90
2018-09-14T05:31:35.367Z,94.20
2018-09-14T05:34:03.563Z,94.30
2018-09-14T05:36:31.742Z,94.40
2018-09-14T05:38:59.946Z,93.90
2018-09-14T05:41:28.167Z,94.30
2018-09-14T05:43:56.370Z,94.20
2018-09-14T05:46:24.588Z,93.80
2018-09-14T05:48:52.766Z,94.70
2018-09-14T05:51:20.942Z,94.80
2018-09-14T05:53:49.125Z,94.30
2018-09-14T05:56:17.482Z,94.20
2018-09-14T05:58:45.666Z,93.70
2018-09-14T06:01:13.839Z,93.40
2018-09-14T06:03:42.026Z,94.10
2018-09-14T06:06:10.203Z,94.50
2018-09-14T06:08:38.382Z,94.50
2018-09-14T06:11:06.670Z,94.30
2018-09-14T06:13:34.887Z,94.30
2018-09-14T06:16:03.129Z,94.20
2018-09-14T06:18:31.327Z,94.30
2018-09-14T06:20:59.506Z,94.30
2018-09-14T06:23:27.686Z,94.40
2018-09-14T06:25:55.862Z,94.60
2018-09-14T06:28:24.043Z,94.30
2018-09-14T06:30:52.227Z,94.60
2018-09-14T06:33:20.415Z,94.90
2018-09-14T06:35:48.958Z,94.70
2018-09-14T06:38:17.280Z,94.60
2018-09-14T06:40:45.513Z,94.70
2018-09-14T06:43:13.926Z,94.90
2018-09-14T06:45:42.103Z,94.80
2018-09-14T06:48:10.320Z,94.80
2018-09-14T06:50:38.511Z,94.90
2018-09-14T06:53:06.740Z,94.80
2018-09-14T06:55:34.906Z,94.60
2018-09-14T06:58:03.535Z,94.50
2018-09-14T07:00:31.720Z,94.30
2018-09-14T07:02:59.886Z,94.80
2018-09-14T07:05:28.103Z,94.40
2018-09-14T07:07:56.290Z,94.90
2018-09-14T07:10:24.467Z,94.50
2018-09-14T07:12:52.650Z,93.80
2018-09-14T07:15:20.834Z,93.80
2018-09-14T07:17:49.013Z,93.50
2018-09-14T07:20:17.233Z,94.10
2018-09-14T07:22:45.452Z,94.60
2018-09-14T07:25:13.651Z,94.60
2018-09-14T07:27:41.842Z,94.80
2018-09-14T07:30:10.271Z,94.90
2018-09-14T07:32:38.442Z,94.90
2018-09-14T07:35:06.878Z,94.30
2018-09-14T07:37:35.023Z,95.00
2018-09-14T07:40:03.178Z,95.20
2018-09-14T07:42:31.355Z,95.40
2018-09-14T07:44:59.482Z,94.80
2018-09-14T07:47:27.622Z,94.40
2018-09-14T07:49:55.785Z,93.90
2018-09-14T07:52:23.930Z,93.90
2018-09-14T07:54:52.288Z,94.00
2018-09-14T07:57:20.443Z,93.60
2018-09-14T07:59:48.927Z,93.80
2018-09-14T08:02:17.073Z,94.20
2018-09-14T08:04:45.227Z,93.90
2018-09-14T08:07:13.366Z,94.70
2018-09-14T08:09:41.522Z,95.30
2018-09-14T08:12:09.675Z,94.50
2018-09-14T08:14:37.823Z,95.10
2018-09-14T08:17:06.458Z,94.80
2018-09-14T08:19:34.911Z,95.20
2018-09-14T08:22:03.107Z,95.00
2018-09-14T08:24:31.224Z,95.30
2018-09-14T08:26:59.435Z,94.10
2018-09-14T08:29:27.576Z,95.20
2018-09-14T08:31:55.755Z,95.00
2018-09-14T08:34:23.932Z,94.60
2018-09-14T08:36:52.343Z,94.40
2018-09-14T08:39:20.515Z,94.90
2018-09-14T08:41:49.202Z,94.30
2018-09-14T08:44:17.750Z,94.80
2018-09-14T08:46:45.894Z,94.80
2018-09-14T08:49:14.054Z,93.40
2018-09-14T08:51:42.198Z,94.30
2018-09-14T08:54:10.347Z,93.50
2018-09-14T08:56:38.527Z,94.60
2018-09-14T08:59:06.902Z,94.90
2018-09-14T09:01:35.085Z,94.30
2018-09-14T09:04:03.210Z,94.30
2018-09-14T09:06:31.369Z,92.90
2018-09-14T09:08:59.515Z,93.70
2018-09-14T09:11:27.718Z,92.70
2018-09-14T09:13:55.850Z,92.50
2018-09-14T09:16:24.219Z,92.70
2018-09-14T09:18:52.375Z,93.10
2018-09-14T09:21:20.775Z,93.40
2018-09-14T09:23:48.923Z,92.40
2018-09-14T09:26:17.370Z,91.30
2018-09-14T09:28:45.539Z,92.20
2018-09-14T09:31:13.695Z,92.00
2018-09-14T09:33:41.879Z,90.30
2018-09-14T09:36:10.086Z,91.30
2018-09-14T09:38:38.250Z,91.00
2018-09-14T09:41:06.939Z,91.20
2018-09-14T09:43:35.244Z,91.50
2018-09-14T09:46:03.299Z,91.40
2018-09-14T09:48:31.488Z,91.80
2018-09-14T09:50:59.741Z,92.80
2018-09-14T09:53:27.965Z,90.70
2018-09-14T09:55:56.146Z,90.30
2018-09-14T09:58:24.318Z,90.80
2018-09-14T10:00:58.011Z,90.70
2018-09-14T10:03:31.620Z,90.70
2018-09-14T10:06:05.298Z,89.00
2018-09-14T10:08:33.471Z,90.70
2018-09-14T10:11:01.807Z,91.70
2018-09-14T10:13:30.274Z,92.10
2018-09-14T10:15:58.457Z,88.30
2018-09-14T10:18:26.627Z,90.90
2018-09-14T10:20:54.901Z,92.10
2018-09-14T10:23:23.029Z,91.70
2018-09-14T10:25:51.231Z,90.90
2018-09-14T10:28:19.424Z,91.10
2018-09-14T10:30:47.634Z,91.10
2018-09-14T10:33:15.907Z,89.80
2018-09-14T10:35:44.105Z,91.00
2018-09-14T10:38:12.283Z,90.70
2018-09-14T10:40:40.483Z,90.30
2018-09-14T10:43:08.962Z,90.00
2018-09-14T10:45:37.147Z,87.10
2018-09-14T10:48:05.518Z,86.70
2018-09-14T10:50:33.935Z,84.60
2018-09-14T10:53:02.521Z,85.60
2018-09-14T10:55:30.910Z,82.60
2018-09-14T10:57:59.099Z,80.70
2018-09-14T11:00:27.312Z,85.40
2018-09-14T11:02:55.506Z,87.90
2018-09-14T11:05:23.687Z,87.70
2018-09-14T11:07:51.867Z,85.70
2018-09-14T11:10:20.290Z,86.10
2018-09-14T11:12:48.497Z,86.10
2018-09-14T11:15:16.649Z,86.00
2018-09-14T11:17:44.826Z,88.10
2018-09-14T11:20:13.003Z,88.70
2018-09-14T11:22:41.186Z,89.00
2018-09-14T11:25:09.432Z,88.60
2018-09-14T11:27:37.538Z,89.50
2018-09-14T11:30:07.006Z,89.10
2018-09-14T11:32:35.219Z,89.50
2018-09-14T11:35:03.408Z,90.20
2018-09-14T11:37:31.637Z,89.10
2018-09-14T11:40:01.236Z,89.40
2018-09-14T11:42:30.042Z,87.40
2018-09-14T11:44:58.500Z,85.10
2018-09-14T11:47:27.334Z,85.10
2018-09-14T11:49:55.775Z,86.60
2018-09-14T11:52:24.466Z,84.70
2018-09-14T11:54:52.646Z,83.20
2018-09-14T11:57:20.802Z,81.60
2018-09-14T11:59:49.563Z,77.00
2018-09-14T12:02:18.059Z,79.20
2018-09-14T12:04:46.219Z,76.90
2018-09-14T12:07:14.419Z,78.10
2018-09-14T12:09:42.600Z,74.50
2018-09-14T12:12:10.992Z,75.50
2018-09-14T12:14:39.650Z,75.50
2018-09-14T12:17:07.807Z,74.50
2018-09-14T12:19:35.955Z,72.50
2018-09-14T12:22:04.113Z,69.50
2018-09-14T12:24:32.267Z,70.90
2018-09-14T12:27:00.417Z,69.10
2018-09-14T12:29:28.575Z,68.30
2018-09-14T12:31:56.726Z,70.00
2018-09-14T12:34:24.911Z,68.30
2018-09-14T12:36:53.099Z,68.30
2018-09-14T12:39:21.282Z,67.70
2018-09-14T12:41:49.462Z,69.50
2018-09-14T12:44:17.679Z,73.00
2018-09-14T12:46:45.875Z,73.00
2018-09-14T12:49:14.067Z,73.60
2018-09-14T12:51:42.238Z,72.60
2018-09-14T12:54:10.419Z,73.90
2018-09-14T12:56:38.823Z,73.70
2018-09-14T12:59:07.039Z,76.60
2018-09-14T13:01:35.238Z,72.70
2018-09-14T13:04:03.587Z,73.10
2018-09-14T13:06:31.886Z,72.90
2018-09-14T13:09:00.091Z,72.50
2018-09-14T13:11:28.278Z,74.90
2018-09-14T13:13:56.482Z,74.60
2018-09-14T13:16:24.690Z,75.10
2018-09-14T13:18:52.875Z,75.60
2018-09-14T13:21:21.139Z,73.00
2018-09-14T13:23:49.441Z,77.20
2018-09-14T13:26:17.711Z,76.10
2018-09-14T13:28:45.903Z,75.20
2018-09-14T13:31:14.102Z,78.30
2018-09-14T13:33:42.304Z,75.90
2018-09-14T13:36:10.490Z,75.90
2018-09-14T13:38:38.738Z,75.80
2018-09-14T13:41:07.031Z,77.20
2018-09-14T13:43:35.423Z,75.20
2018-09-14T13:46:03.597Z,74.90
2018-09-14T13:48:32.310Z,73.70
2018-09-14T13:51:00.454Z,76.40
2018-09-14T13:53:28.610Z,76.00
2018-09-14T13:55:56.758Z,76.10
2018-09-14T13:58:24.932Z,73.00
2018-09-14T14:00:53.091Z,74.50
2018-09-14T14:03:21.246Z,72.30
2018-09-14T14:05:49.465Z,74.00
2018-09-14T14:08:17.658Z,72.90
2018-09-14T14:10:46.055Z,73.50
2018-09-14T14:13:14.539Z,73.00
2018-09-14T14:15:42.693Z,74.00
2018-09-14T14:18:10.947Z,74.40
2018-09-14T14:20:39.187Z,71.80
2018-09-14T14:23:07.480Z,74.00
2018-09-14T14:25:35.734Z,74.80
2018-09-14T14:28:04.023Z,74.50
2018-09-14T14:30:32.285Z,74.40
2018-09-14T14:33:00.439Z,74.30
2018-09-14T14:35:28.954Z,74.80
2018-09-14T14:37:57.134Z,74.30
2018-09-14T14:40:25.534Z,74.00
2018-09-14T14:42:53.694Z,74.60
2018-09-14T14:45:21.865Z,73.10
2018-09-14T14:47:50.023Z,75.00
2018-09-14T14:50:18.463Z,73.90
2018-09-14T14:52:46.899Z,75.80
2018-09-14T14:55:15.123Z,75.80
2018-09-14T14:57:43.265Z,74.20
2018-09-14T15:00:11.631Z,74.50
2018-09-14T15:02:39.879Z,73.10
2018-09-14T15:05:08.063Z,73.40
2018-09-14T15:07:36.391Z,74.90
2018-09-14T15:10:04.580Z,74.70
2018-09-14T15:12:32.981Z,73.80
2018-09-14T15:15:01.179Z,73.90
2018-09-14T15:17:29.500Z,74.00
2018-09-14T15:19:57.662Z,73.80
2018-09-14T15:22:25.815Z,72.50
2018-09-14T15:24:53.974Z,72.00
2018-09-14T15:27:22.122Z,74.10
2018-09-14T15:29:50.284Z,73.80
2018-09-14T15:32:18.426Z,72.20
2018-09-14T15:34:46.618Z,72.20
2018-09-14T15:37:14.819Z,73.90
2018-09-14T15:39:43.003Z,71.30
2018-09-14T15:42:11.182Z,71.60
2018-09-14T15:44:39.441Z,72.80
2018-09-14T15:47:07.847Z,72.40
2018-09-14T15:49:36.032Z,71.60
2018-09-14T15:52:04.217Z,71.20
2018-09-14T15:54:32.422Z,73.80
2018-09-14T15:57:00.619Z,71.90
2018-09-14T15:59:28.820Z,70.80
2018-09-14T16:01:56.990Z,70.50
2018-09-14T16:04:25.193Z,71.60
2018-09-14T16:06:53.450Z,73.80
2018-09-14T16:09:21.634Z,73.80
2018-09-14T16:11:49.801Z,74.30
2018-09-14T16:14:18.007Z,74.90
2018-09-14T16:16:46.186Z,76.40
2018-09-14T16:19:14.370Z,75.90
2018-09-14T16:21:42.551Z,76.90
2018-09-14T16:24:10.760Z,75.50
2018-09-14T16:26:38.942Z,73.90
2018-09-14T16:29:07.110Z,75.90
2018-09-14T16:31:35.711Z,73.80
2018-09-14T16:34:03.869Z,75.40
2018-09-14T16:36:32.062Z,75.30
2018-09-14T16:39:00.255Z,76.10
2018-09-14T16:41:28.438Z,75.90
2018-09-14T16:43:56.612Z,76.40
2018-09-14T16:46:24.794Z,74.90
2018-09-14T16:48:52.966Z,75.90
2018-09-14T16:51:21.201Z,77.00
2018-09-14T16:53:49.327Z,76.90
2018-09-14T16:56:17.530Z,75.10
2018-09-14T16:58:45.702Z,75.80
2018-09-14T17:01:13.894Z,77.50
2018-09-14T17:03:42.083Z,77.90
2018-09-14T17:06:10.310Z,78.50
2018-09-14T17:08:38.507Z,78.70
2018-09-14T17:11:06.711Z,79.60
2018-09-14T17:13:34.887Z,80.00
2018-09-14T17:16:03.046Z,79.80
2018-09-14T17:18:31.206Z,79.90
2018-09-14T17:20:59.379Z,81.00
2018-09-14T17:23:27.834Z,82.30
2018-09-14T17:25:55.987Z,82.40
2018-09-14T17:28:24.146Z,82.60
2018-09-14T17:30:52.298Z,83.70
2018-09-14T17:33:20.451Z,84.30
2018-09-14T17:35:48.643Z,84.30
2018-09-14T17:38:16.835Z,84.00
2018-09-14T17:40:44.998Z,84.40
2018-09-14T17:43:13.174Z,85.20
2018-09-14T17:45:41.413Z,85.80
2018-09-14T17:48:09.632Z,86.10
2018-09-14T17:50:37.810Z,86.40
2018-09-14T17:53:06.019Z,87.60
2018-09-14T17:55:34.204Z,86.70
2018-09-14T17:58:02.382Z,87.40
2018-09-14T18:00:30.571Z,88.00
2018-09-14T18:02:58.750Z,88.10
2018-09-14T18:05:26.929Z,88.00
2018-09-14T18:07:55.212Z,89.40
2018-09-14T18:10:23.627Z,89.20
2018-09-14T18:12:52.187Z,89.80
2018-09-14T18:15:20.837Z,89.00
2018-09-14T18:17:49.129Z,89.00
2018-09-14T18:20:17.400Z,89.20
2018-09-14T18:22:45.802Z,89.30
2018-09-14T18:25:14.167Z,90.10
2018-09-14T18:27:42.455Z,90.00
2018-09-14T18:30:10.948Z,90.00
2018-09-14T18:32:39.216Z,90.00
2018-09-14T18:35:07.565Z,89.50
2018-09-14T18:37:35.836Z,89.20
2018-09-14T18:40:04.111Z,89.70
2018-09-14T18:42:32.365Z,90.10
2018-09-14T18:45:00.613Z,90.20
2018-09-14T18:47:28.858Z,90.20
2018-09-14T18:49:57.119Z,90.30
2018-09-14T18:52:25.450Z,90.20
2018-09-14T18:54:53.789Z,90.00
2018-09-14T18:57:22.059Z,90.20
2018-09-14T18:59:50.273Z,90.30
2018-09-14T19:02:18.491Z,90.30
2018-09-14T19:04:46.699Z,90.50
2018-09-14T19:07:14.903Z,90.40
2018-09-14T19:09:43.139Z,90.60
2018-09-14T19:12:11.378Z,90.50
2018-09-14T19:14:39.783Z,90.40
2018-09-14T19:17:07.992Z,90.70
2018-09-14T19:19:36.213Z,90.90
2018-09-14T19:22:04.494Z,90.90
2018-09-14T19:24:32.764Z,91.00
2018-09-14T19:27:00.972Z,90.80
2018-09-14T19:29:29.248Z,91.00
2018-09-14T19:31:57.521Z,91.00
2018-09-14T19:34:25.745Z,91.20
2018-09-14T19:36:54.012Z,91.00
2018-09-14T19:39:22.377Z,91.20
2018-09-14T19:41:50.633Z,91.20
2018-09-14T19:44:18.897Z,91.20
2018-09-14T19:46:47.138Z,90.90
2018-09-14T19:49:15.661Z,91.20
2018-09-14T19:51:43.852Z,91.20
2018-09-14T19:54:12.183Z,91.30
2018-09-14T19:56:40.375Z,91.50
2018-09-14T19:59:08.728Z,91.20
2018-09-14T20:01:37.324Z,91.20
2018-09-14T20:04:05.780Z,91.30
2018-09-14T20:06:34.318Z,91.40
2018-09-14T20:09:02.524Z,91.50
2018-09-14T20:11:30.938Z,91.40
2018-09-14T20:13:59.094Z,91.60
2018-09-14T20:16:27.294Z,91.40
2018-09-14T20:18:55.494Z,91.40
2018-09-14T20:21:23.788Z,91.50
2018-09-14T20:23:52.102Z,91.70
2018-09-14T20:26:20.398Z,91.80
2018-09-14T20:28:48.671Z,91.90
2018-09-14T20:31:16.868Z,91.90
2018-09-14T20:33:45.124Z,92.00
2018-09-14T20:36:13.356Z,91.90
2018-09-14T20:38:41.572Z,92.00
2018-09-14T20:41:09.774Z,92.10
2018-09-14T20:43:38.191Z,92.10
2018-09-14T20:46:06.621Z,92.10
2018-09-14T20:48:34.906Z,92.10
2018-09-14T20:51:03.110Z,92.10
2018-09-14T20:53:31.323Z,92.10
2018-09-14T20:55:59.494Z,92.20
2018-09-14T20:58:27.757Z,92.00
2018-09-14T21:00:55.874Z,92.40
2018-09-14T21:03:24.406Z,92.00
2018-09-14T21:05:52.599Z,92.10
2018-09-14T21:08:20.794Z,92.20
2018-09-14T21:10:48.994Z,92.30
2018-09-14T21:13:17.234Z,92.30
2018-09-14T21:15:45.651Z,92.30
2018-09-14T21:18:13.911Z,92.30
2018-09-14T21:20:42.136Z,92.30
2018-09-14T21:23:10.526Z,92.20
2018-09-14T21:25:38.714Z,92.30
2018-09-14T21:28:06.899Z,92.30
2018-09-14T21:30:35.083Z,92.30
2018-09-14T21:33:03.378Z,92.40
2018-09-14T21:35:31.534Z,92.40
2018-09-14T21:37:59.728Z,92.50
2018-09-14T21:40:27.956Z,92.30
2018-09-14T21:42:56.317Z,92.40
2018-09-14T21:45:24.482Z,92.40
2018-09-14T21:47:52.638Z,92.50
2018-09-14T21:50:20.814Z,92.60
2018-09-14T21:52:49.198Z,92.60
2018-09-14T21:55:17.367Z,92.50
2018-09-14T21:57:45.514Z,92.50
2018-09-14T22:00:19.147Z,92.40
2018-09-14T22:02:47.328Z,92.40
2018-09-14T22:05:15.536Z,92.50
2018-09-14T22:07:43.939Z,92.40
2018-09-14T22:10:12.099Z,92.60
2018-09-14T22:12:41.058Z,92.50
2018-09-14T22:15:09.219Z,92.50
2018-09-14T22:17:37.366Z,92.60
2018-09-14T22:20:06.290Z,92.70
2018-09-14T22:22:34.447Z,92.60
2018-09-14T22:25:02.602Z,92.70
2018-09-14T22:27:30.755Z,92.70
2018-09-14T22:29:58.906Z,92.90
2018-09-14T22:32:27.058Z,92.70
2018-09-14T22:34:55.280Z,92.50
2018-09-14T22:37:23.515Z,92.60
2018-09-14T22:39:51.720Z,92.80
2018-09-14T22:42:19.903Z,92.90
2018-09-14T22:44:48.103Z,93.00
2018-09-14T22:47:16.614Z,92.90
2018-09-14T22:49:44.807Z,92.80
2018-09-14T22:52:12.990Z,92.80
2018-09-14T22:54:41.175Z,92.90
2018-09-14T22:57:09.342Z,92.80
2018-09-14T22:59:37.535Z,92.90
2018-09-14T23:02:05.722Z,92.90
2018-09-14T23:04:33.911Z,93.00
2018-09-14T23:07:02.090Z,93.30
2018-09-14T23:09:30.296Z,93.10
2018-09-14T23:11:58.524Z,93.10
2018-09-14T23:14:26.723Z,93.10
2018-09-14T23:16:54.906Z,93.20
2018-09-14T23:19:23.096Z,93.10
2018-09-14T23:21:51.258Z,93.10
2018-09-14T23:24:19.448Z,93.20
2018-09-14T23:26:47.626Z,92.90
2018-09-14T23:29:15.826Z,93.00
2018-09-14T23:31:43.998Z,93.00
2018-09-14T23:34:13.175Z,93.10
2018-09-14T23:36:41.646Z,93.10
2018-09-14T23:39:11.146Z,93.10
2018-09-14T23:41:39.449Z,93.10
2018-09-14T23:44:07.792Z,93.20
2018-09-14T23:46:36.019Z,93.20
2018-09-14T23:49:04.270Z,93.40
2018-09-14T23:51:32.451Z,93.30
2018-09-14T23:54:00.626Z,93.30
2018-09-14T23:56:28.814Z,93.00
2018-09-14T23:58:57.546Z,92.90
